Skip to main content

NOAA/GLERL Met Station at Michigan City, IN

Previous 3 Hours (2 minute increments)
See also Previous 5 Days (top of hour)
Jump down to Data
Switch to [English][Metric]
Zoom: Click and drag, Pan: shift-click and drag, Unzoom: double-click, Unzoom All






See also 1-day windrose plot


NOAA/GLERL Met Station at Michigan City, IN

Previous 3 Hours (2 minute increments)
See also Previous 5 Days (top of hour only)
Jump up to Graphs
Switch to [English][Metric]
                  Wind  Wind  Wind   Air   Dew   Rel     Sta   PAR
                   Spd   Gst   Dir  Temp    Pt   Hum    Pres uE/m2/
YYYY-MM-DD   CDT   kts   kts   deg     F     F     %   in Hg   sec
2021-10-23 19:22   2.7   2.9   117  47.8  36.0  63.2   29.36     0
2021-10-23 19:20   2.7   3.3   108  48.2  35.5  61.2   29.36     0
2021-10-23 19:18   3.7   4.3   103  48.6  35.5  60.2   29.36     0
2021-10-23 19:16   2.3   3.9   107  48.6  36.4  62.6   29.36     0
2021-10-23 19:14   2.1   3.7   123  47.8  36.2  63.7   29.36     0
2021-10-23 19:12   4.1   4.9   128  47.7  36.3  64.4   29.36     0
2021-10-23 19:10   4.3   4.9   129  48.2  36.0  62.4   29.39     0
2021-10-23 19:08   3.9   4.7   128  48.7  35.7  60.3   29.39     0
2021-10-23 19:06   2.9   4.1   117  49.6  35.9  58.7   29.39     0
2021-10-23 19:04   3.7   5.4    64  50.2  34.9  55.4   29.39     0
2021-10-23 19:02   5.1   6.0    55  50.2  34.1  53.6   29.38     0
2021-10-23 19:00   5.4   7.0    34  50.2  33.8  52.9   29.36     0
2021-10-23 18:58   5.2   7.6    33  50.4  34.5  54.1   29.36     0
2021-10-23 18:56   3.3   4.7    31  50.2  33.6  52.5   29.36     0
2021-10-23 18:54   4.1   5.4    33  50.2  33.7  52.7   29.36     0
2021-10-23 18:52   4.5   5.4    12  50.2  34.2  53.8   29.36     0
2021-10-23 18:50   5.8   7.0   353  50.2  33.7  52.7   29.36     0
2021-10-23 18:48   6.2   7.4    10  50.4  34.1  53.3   29.36     0
2021-10-23 18:46   7.6   8.9     8  50.4  34.1  53.2   29.36     0
2021-10-23 18:44   4.5   5.6    53  50.4  34.2  53.5   29.36     0
2021-10-23 18:42   4.3   5.2    61  50.2  33.7  52.7   29.36     0
2021-10-23 18:40   4.5   5.8    47  50.2  34.1  53.7   29.37     0
2021-10-23 18:38   4.3   6.0    31  50.2  33.6  52.6   29.37     0
2021-10-23 18:36   5.2   6.4    29  50.4  34.6  54.3   29.37     0
2021-10-23 18:34   6.8   8.6    17  50.2  34.2  53.9   29.37     0
2021-10-23 18:32   3.5   4.9    18  50.2  33.7  52.8   29.36     0
2021-10-23 18:30   3.1   4.7    33  50.2  33.5  52.4   29.36     0
2021-10-23 18:28   3.1   5.8    19  50.2  33.0  51.4   29.35     0
2021-10-23 18:26   6.8   9.1    23  50.4  34.4  53.9   29.35     0
2021-10-23 18:24   7.4  10.3    27  50.4  34.7  54.5   29.35     0
2021-10-23 18:22   6.2   7.8    36  50.4  35.5  56.4   29.35     0
2021-10-23 18:20   5.6   7.0    59  50.0  33.9  53.6   29.35     0
2021-10-23 18:18   4.3   6.4    53  50.0  34.3  54.4   29.35     0
2021-10-23 18:16   6.2   7.6    51  50.2  34.7  55.0   29.35     0
2021-10-23 18:14   5.8   7.6    38  50.0  34.0  53.7   29.35     0
2021-10-23 18:12   5.2   6.4    29  50.2  34.3  54.1   29.35     0
2021-10-23 18:10   4.9   6.6    28  50.0  34.1  54.1   29.36     0
2021-10-23 18:08   5.8   6.4    36  50.0  33.6  53.0   29.36     0
2021-10-23 18:06   6.0   6.6    22  50.2  34.3  54.0   29.36     0
2021-10-23 18:04   6.8   8.4    17  50.4  35.1  55.5   29.36     0
2021-10-23 18:02   3.9   6.6    40  50.2  34.6  54.8   29.36     0
2021-10-23 18:00   1.7   3.1    28  50.0  33.6  52.9   29.35     0
2021-10-23 17:58   4.5   6.4    30  49.8  33.0  52.0   29.35     0
2021-10-23 17:56   6.4   7.4    26  50.2  33.7  52.7   29.35     0
2021-10-23 17:54   6.4   7.8    14  50.0  33.6  52.9   29.36     0
2021-10-23 17:52   6.8   9.7    24  50.0  33.2  52.0   29.35     0
2021-10-23 17:50   7.8   9.7    14  50.7  34.5  53.5   29.35     0
2021-10-23 17:48   6.6   7.8   350  50.9  34.4  52.9   29.36     0
2021-10-23 17:46   6.6   8.0     2  50.9  35.8  55.9   29.36     0
2021-10-23 17:44   6.4   8.7    21  50.5  35.4  55.7   29.36     0
2021-10-23 17:42   5.2   6.0    15  50.4  34.0  53.1   29.36     0
2021-10-23 17:40   6.0   8.6    13  50.7  34.1  52.5   29.36     0
2021-10-23 17:38   4.7   5.8    14  51.3  34.3  52.0   29.37     0
2021-10-23 17:36   4.5   5.6   358  50.9  33.5  50.9   29.37     0
2021-10-23 17:34   6.4   8.6    13  50.9  33.2  50.3   29.37     0
2021-10-23 17:32   8.6   9.5     2  51.1  33.7  51.1   29.36     0
2021-10-23 17:30   5.1   6.8    13  50.9  34.3  52.7   29.36     0
2021-10-23 17:28   2.9   4.1    22  50.5  33.8  52.2   29.36     0
2021-10-23 17:26   6.2   8.0    13  50.5  32.8  50.3   29.36     0
2021-10-23 17:24   7.4   8.9    14  50.7  33.4  51.2   29.36    41
2021-10-23 17:22   8.9   9.9     9  50.9  33.0  49.9   29.36   130
2021-10-23 17:20   6.4  10.3     6  52.0  34.7  51.3   29.36   164
2021-10-23 17:18   6.0   8.6     2  51.3  34.3  52.0   29.36   164
2021-10-23 17:16   7.4   8.4    20  50.5  33.7  52.0   29.36   164
2021-10-23 17:14   6.4   8.4    23  51.6  32.7  48.0   29.36   164
2021-10-23 17:12   4.5   7.0   350  52.5  35.0  50.9   29.36   164
2021-10-23 17:10   3.1   4.7    10  51.6  34.4  51.5   29.38   164
2021-10-23 17:08   2.7   3.1    17  51.4  33.7  50.4   29.38   164
2021-10-23 17:06   2.7   4.5    15  50.7  33.5  51.4   29.38   164
2021-10-23 17:04   2.1   3.1    37  50.4  32.8  50.5   29.38   164
2021-10-23 17:02   2.9   3.9    39  50.7  32.9  50.0   29.37   164
2021-10-23 17:00   3.7   4.5    17  51.4  33.5  50.0   29.36   164
2021-10-23 16:58   3.7   5.2    23  51.3  32.5  48.3   29.36   171
2021-10-23 16:56   4.7   7.6    12  52.9  33.4  47.2   29.36   171
2021-10-23 16:54   3.5   6.0   355  52.9  33.5  47.3   29.36   177
2021-10-23 16:52   1.6   5.1   355  52.7  34.0  48.6   29.36   293
2021-10-23 16:50   1.7   2.5    20  52.3  32.6  46.5   29.36   328
2021-10-23 16:48   1.6   3.7     7  54.0  33.2  44.9   29.36   328
2021-10-23 16:46   3.9   5.2   333  54.0  33.2  44.9   29.36   328
2021-10-23 16:44   5.2   6.4   353  54.0  34.3  47.0   29.36   328
2021-10-23 16:42   5.4   7.4   354  54.0  34.3  47.0   29.36   328
2021-10-23 16:40   3.7   6.2   338  53.6  33.5  46.1   29.37   328
2021-10-23 16:38   5.8   6.6   336  53.8  33.7  46.1   29.37   328
2021-10-23 16:36   7.2   8.2   357  54.0  34.2  46.8   29.37   328
2021-10-23 16:34   3.9   6.2   350  54.1  35.0  47.9   29.37   328
2021-10-23 16:32   3.5   5.2   352  53.6  34.5  47.9   29.36   328
2021-10-23 16:30   6.2   7.8   357  53.2  34.4  48.4   29.36   328
2021-10-23 16:28   5.2   8.4   351  52.9  34.0  48.3   29.36   328
2021-10-23 16:26   4.5   7.0   352  53.8  34.3  47.2   29.35   328
2021-10-23 16:24   1.9   2.9   332  53.1  33.5  47.1   29.36   328
2021-10-23 16:22   4.5   7.0   349  52.7  33.3  47.2   29.35   328